createdAt,value
2022-09-24T00:00:34.691Z,0.00
2022-09-24T00:01:34.846Z,0.00
2022-09-24T00:02:34.847Z,0.00
2022-09-24T00:03:34.808Z,0.00
2022-09-24T00:04:34.868Z,0.00
2022-09-24T00:05:34.898Z,0.00
2022-09-24T00:06:34.893Z,0.00
2022-09-24T00:07:34.926Z,0.00
2022-09-24T00:08:35.030Z,0.00
2022-09-24T00:09:34.991Z,0.00
2022-09-24T00:10:35.024Z,0.00
2022-09-24T00:11:35.059Z,0.00
2022-09-24T00:12:35.164Z,0.00
2022-09-24T00:13:35.124Z,0.00
2022-09-24T00:14:35.156Z,0.00
2022-09-24T00:15:35.192Z,0.00
2022-09-24T00:16:35.270Z,0.00
2022-09-24T00:17:35.258Z,0.00
2022-09-24T00:18:35.290Z,0.00
2022-09-24T00:19:35.326Z,0.00
2022-09-24T00:20:35.392Z,0.00
2022-09-24T00:21:35.403Z,0.00
2022-09-24T00:22:35.427Z,0.00
2022-09-24T00:23:35.457Z,0.00
2022-09-24T00:24:35.491Z,0.00
2022-09-24T00:25:35.532Z,0.00
2022-09-24T00:26:35.558Z,0.00
2022-09-24T00:27:35.593Z,0.00
2022-09-24T00:28:35.626Z,0.00
2022-09-24T00:29:36.130Z,0.00
2022-09-24T00:30:35.692Z,0.00
2022-09-24T00:31:35.876Z,0.00
2022-09-24T00:32:35.758Z,0.00
2022-09-24T00:33:35.790Z,0.00
2022-09-24T00:34:35.824Z,0.00
2022-09-24T00:35:35.860Z,0.00
2022-09-24T00:36:35.891Z,0.00
2022-09-24T00:37:35.923Z,0.00
2022-09-24T00:38:35.955Z,0.00
2022-09-24T00:39:35.990Z,0.00
2022-09-24T00:40:36.037Z,0.00
2022-09-24T00:41:36.060Z,0.00
2022-09-24T00:42:36.090Z,0.00
2022-09-24T00:43:36.129Z,0.00
2022-09-24T00:44:36.158Z,0.00
2022-09-24T00:45:36.190Z,0.00
2022-09-24T00:46:36.319Z,0.00
2022-09-24T00:47:36.263Z,0.00
2022-09-24T00:48:36.288Z,0.00
2022-09-24T00:49:36.325Z,0.00
2022-09-24T00:50:36.357Z,0.00
2022-09-24T00:51:36.393Z,0.00
2022-09-24T00:52:36.422Z,0.00
2022-09-24T00:53:36.458Z,0.00
2022-09-24T00:54:36.488Z,0.00
2022-09-24T00:55:36.523Z,0.00
2022-09-24T00:56:36.556Z,0.00
2022-09-24T00:57:36.589Z,0.00
2022-09-24T00:58:36.620Z,0.00
2022-09-24T00:59:36.657Z,0.00
2022-09-24T01:00:36.777Z,0.00
2022-09-24T01:01:36.761Z,0.00
2022-09-24T01:02:36.757Z,0.00
2022-09-24T01:03:36.791Z,0.00
2022-09-24T01:04:36.820Z,0.00
2022-09-24T01:05:36.868Z,0.00
2022-09-24T01:06:36.887Z,0.00
2022-09-24T01:07:36.924Z,0.00
2022-09-24T01:08:36.952Z,0.00
2022-09-24T01:09:36.987Z,0.00
2022-09-24T01:10:37.021Z,0.00
2022-09-24T01:11:37.053Z,0.00
2022-09-24T01:12:37.086Z,0.00
2022-09-24T01:13:41.178Z,0.00
2022-09-24T01:14:37.152Z,0.00
2022-09-24T01:15:37.186Z,0.00
2022-09-24T01:16:37.281Z,0.00
2022-09-24T01:17:37.251Z,0.00
2022-09-24T01:18:37.285Z,0.00
2022-09-24T01:19:37.320Z,0.00
2022-09-24T01:20:37.350Z,0.00
2022-09-24T01:21:37.384Z,0.00
2022-09-24T01:22:37.418Z,0.00
2022-09-24T01:23:37.450Z,0.00
2022-09-24T01:24:37.484Z,0.00
2022-09-24T01:25:37.518Z,0.00
2022-09-24T01:26:37.550Z,0.00
2022-09-24T01:27:37.583Z,0.00
2022-09-24T01:28:37.632Z,0.00
2022-09-24T01:29:37.652Z,0.00
2022-09-24T01:30:37.681Z,0.00
2022-09-24T01:31:37.764Z,0.00
2022-09-24T01:32:37.753Z,0.00
2022-09-24T01:33:37.781Z,0.00
2022-09-24T01:34:37.812Z,0.00
2022-09-24T01:35:37.849Z,0.00
2022-09-24T01:36:37.881Z,0.00
2022-09-24T01:37:37.929Z,0.00
2022-09-24T01:38:37.951Z,0.00
2022-09-24T01:39:37.984Z,0.00
2022-09-24T01:40:38.083Z,0.00
2022-09-24T01:41:38.045Z,0.00
2022-09-24T01:42:38.081Z,0.00
2022-09-24T01:43:38.121Z,0.00
2022-09-24T01:44:38.154Z,0.00
2022-09-24T01:45:38.188Z,0.00
2022-09-24T01:46:38.333Z,0.00
2022-09-24T01:47:38.256Z,0.00
2022-09-24T01:48:38.286Z,0.00
2022-09-24T01:49:38.327Z,0.00
2022-09-24T01:50:38.352Z,0.00
2022-09-24T01:51:38.386Z,0.00
2022-09-24T01:52:38.419Z,0.00
2022-09-24T01:53:38.454Z,0.00
2022-09-24T01:54:38.483Z,0.00
2022-09-24T01:55:38.517Z,0.00
2022-09-24T01:56:38.555Z,0.00
2022-09-24T01:57:38.585Z,0.00
2022-09-24T01:58:38.617Z,0.00
2022-09-24T01:59:38.651Z,0.00
2022-09-24T02:00:38.758Z,0.00
2022-09-24T02:01:38.736Z,0.00
2022-09-24T02:02:38.749Z,0.00
2022-09-24T02:03:38.787Z,0.00
2022-09-24T02:04:38.813Z,0.00
2022-09-24T02:05:38.866Z,0.00
2022-09-24T02:06:38.879Z,0.00
2022-09-24T02:07:38.915Z,0.00
2022-09-24T02:08:38.948Z,0.00
2022-09-24T02:09:38.980Z,0.00
2022-09-24T02:10:39.015Z,0.00
2022-09-24T02:11:39.049Z,0.00
2022-09-24T02:12:39.079Z,0.00
2022-09-24T02:13:39.115Z,0.00
2022-09-24T02:14:39.145Z,0.00
2022-09-24T02:15:39.178Z,0.00
2022-09-24T02:16:39.212Z,0.00
2022-09-24T02:17:39.245Z,0.00
2022-09-24T02:18:39.277Z,0.00
2022-09-24T02:19:39.322Z,0.00
2022-09-24T02:20:39.345Z,0.00
2022-09-24T02:21:39.378Z,0.00
2022-09-24T02:22:39.408Z,0.00
2022-09-24T02:23:39.444Z,0.00
2022-09-24T02:24:39.475Z,0.00
2022-09-24T02:25:39.514Z,0.00
2022-09-24T02:26:39.543Z,0.00
2022-09-24T02:27:39.587Z,0.00
2022-09-24T02:28:39.607Z,0.00
2022-09-24T02:29:39.641Z,0.00
2022-09-24T02:30:39.675Z,0.00
2022-09-24T02:31:39.843Z,0.00
2022-09-24T02:32:39.740Z,0.00
2022-09-24T02:33:39.787Z,0.00
2022-09-24T02:34:39.806Z,0.00
2022-09-24T02:35:39.846Z,0.00
2022-09-24T02:36:39.874Z,0.00
2022-09-24T02:37:39.927Z,0.00
2022-09-24T02:38:39.943Z,0.00
2022-09-24T02:39:39.979Z,0.00
2022-09-24T02:40:40.068Z,0.00
2022-09-24T02:41:40.115Z,0.00
2022-09-24T02:42:40.085Z,0.00
2022-09-24T02:43:40.110Z,0.00
2022-09-24T02:44:40.136Z,0.00
2022-09-24T02:45:40.194Z,0.00
2022-09-24T02:46:40.216Z,0.00
2022-09-24T02:47:40.237Z,0.00
2022-09-24T02:48:40.268Z,0.00
2022-09-24T02:49:40.301Z,0.00
2022-09-24T02:50:40.339Z,0.00
2022-09-24T02:51:40.370Z,0.00
2022-09-24T02:52:40.400Z,0.00
2022-09-24T02:53:40.434Z,0.00
2022-09-24T02:54:40.465Z,0.00
2022-09-24T02:55:40.505Z,0.00
2022-09-24T02:56:40.532Z,0.00
2022-09-24T02:57:40.567Z,0.00
2022-09-24T02:58:40.597Z,0.00
2022-09-24T02:59:40.633Z,0.00
2022-09-24T03:00:40.665Z,0.00
2022-09-24T03:01:40.785Z,0.00
2022-09-24T03:02:40.892Z,0.00
2022-09-24T03:03:40.766Z,0.00
2022-09-24T03:04:40.798Z,0.00
2022-09-24T03:05:40.828Z,0.00
2022-09-24T03:06:40.862Z,0.00
2022-09-24T03:07:40.898Z,0.00
2022-09-24T03:08:40.927Z,0.00
2022-09-24T03:09:40.962Z,0.00
2022-09-24T03:10:40.996Z,0.00
2022-09-24T03:11:41.028Z,0.00
2022-09-24T03:12:41.061Z,0.00
2022-09-24T03:13:41.093Z,0.00
2022-09-24T03:14:41.126Z,0.00
2022-09-24T03:15:41.241Z,0.00
2022-09-24T03:16:41.191Z,0.00
2022-09-24T03:17:41.226Z,0.00
2022-09-24T03:18:41.262Z,0.00
2022-09-24T03:19:41.292Z,0.00
2022-09-24T03:20:41.325Z,0.00
2022-09-24T03:21:41.357Z,0.00
2022-09-24T03:22:41.390Z,0.00
2022-09-24T03:23:41.424Z,0.00
2022-09-24T03:24:41.455Z,0.00
2022-09-24T03:25:41.489Z,0.00
2022-09-24T03:26:41.521Z,0.00
2022-09-24T03:27:41.555Z,0.00
2022-09-24T03:28:41.586Z,0.00
2022-09-24T03:29:41.637Z,0.00
2022-09-24T03:30:41.655Z,0.00
2022-09-24T03:31:41.819Z,0.00
2022-09-24T03:32:41.721Z,0.00
2022-09-24T03:33:41.767Z,0.00
2022-09-24T03:34:41.784Z,0.00
2022-09-24T03:35:41.818Z,0.00
2022-09-24T03:36:41.854Z,0.00
2022-09-24T03:37:44.829Z,0.00
2022-09-24T03:38:41.918Z,0.00
2022-09-24T03:39:41.956Z,0.00
2022-09-24T03:40:42.050Z,0.00
2022-09-24T03:41:42.015Z,0.00
2022-09-24T03:42:42.096Z,0.00
2022-09-24T03:43:42.080Z,0.00
2022-09-24T03:44:42.119Z,0.00
2022-09-24T03:45:42.148Z,0.00
2022-09-24T03:46:42.222Z,0.00
2022-09-24T03:47:42.215Z,0.00
2022-09-24T03:48:42.247Z,0.00
2022-09-24T03:49:42.281Z,0.00
2022-09-24T03:50:42.312Z,0.00
2022-09-24T03:51:42.346Z,0.00
2022-09-24T03:52:42.380Z,0.00
2022-09-24T03:53:42.410Z,0.00
2022-09-24T03:54:42.444Z,0.00
2022-09-24T03:55:42.476Z,0.00
2022-09-24T03:56:42.511Z,0.00
2022-09-24T03:57:42.545Z,0.00
2022-09-24T03:58:42.582Z,0.00
2022-09-24T03:59:42.614Z,0.00
2022-09-24T04:00:42.642Z,0.00
2022-09-24T04:01:42.715Z,0.00
2022-09-24T04:02:42.943Z,0.00
2022-09-24T04:03:42.747Z,0.00
2022-09-24T04:04:42.774Z,0.00
2022-09-24T04:05:42.808Z,0.00
2022-09-24T04:06:42.839Z,0.00
2022-09-24T04:07:42.872Z,0.00
2022-09-24T04:08:42.907Z,0.00
2022-09-24T04:09:42.938Z,0.00
2022-09-24T04:10:42.972Z,0.00
2022-09-24T04:11:43.004Z,0.00
2022-09-24T04:12:43.039Z,0.00
2022-09-24T04:13:43.069Z,0.00
2022-09-24T04:14:43.105Z,0.00
2022-09-24T04:15:43.165Z,0.00
2022-09-24T04:16:43.169Z,0.00
2022-09-24T04:17:43.201Z,0.00
2022-09-24T04:18:43.236Z,0.00
2022-09-24T04:19:43.354Z,0.00
2022-09-24T04:20:43.302Z,0.00
2022-09-24T04:21:43.331Z,0.00
2022-09-24T04:22:43.367Z,0.00
2022-09-24T04:23:43.399Z,0.00
2022-09-24T04:24:43.436Z,0.00
2022-09-24T04:25:43.465Z,0.00
2022-09-24T04:26:43.515Z,0.00
2022-09-24T04:27:43.531Z,0.00
2022-09-24T04:28:43.565Z,0.00
2022-09-24T04:29:43.595Z,0.00
2022-09-24T04:30:43.641Z,0.00
2022-09-24T04:31:43.691Z,0.00
2022-09-24T04:32:43.698Z,0.00
2022-09-24T04:33:43.728Z,0.00
2022-09-24T04:34:43.761Z,0.00
2022-09-24T04:35:43.880Z,0.00
2022-09-24T04:36:43.827Z,0.00
2022-09-24T04:37:43.859Z,0.00
2022-09-24T04:38:43.897Z,0.00
2022-09-24T04:39:43.926Z,0.00
2022-09-24T04:40:44.011Z,0.00
2022-09-24T04:41:43.992Z,0.00
2022-09-24T04:42:44.025Z,0.00
2022-09-24T04:43:44.056Z,0.00
2022-09-24T04:44:44.091Z,0.00
2022-09-24T04:45:44.131Z,0.00
2022-09-24T04:46:44.255Z,0.00
2022-09-24T04:47:44.190Z,0.00
2022-09-24T04:48:44.224Z,0.00
2022-09-24T04:49:44.254Z,0.00
2022-09-24T04:50:46.284Z,0.00
2022-09-24T04:51:44.324Z,0.00
2022-09-24T04:52:44.355Z,0.00
2022-09-24T04:53:44.387Z,0.00
2022-09-24T04:54:44.421Z,0.00
2022-09-24T04:55:44.453Z,0.00
2022-09-24T04:56:44.489Z,0.00
2022-09-24T04:57:44.521Z,0.00
2022-09-24T04:58:44.550Z,0.00
2022-09-24T04:59:44.594Z,0.00
2022-09-24T05:00:44.618Z,0.00
2022-09-24T05:01:44.792Z,0.00
2022-09-24T05:02:44.774Z,0.00
2022-09-24T05:03:44.716Z,0.00
2022-09-24T05:04:44.748Z,0.00
2022-09-24T05:05:44.780Z,0.00
2022-09-24T05:06:44.813Z,0.00
2022-09-24T05:07:44.847Z,0.00
2022-09-24T05:08:44.880Z,0.00
2022-09-24T05:09:44.913Z,0.00
2022-09-24T05:10:44.945Z,0.00
2022-09-24T05:11:44.977Z,0.00
2022-09-24T05:12:45.012Z,0.00
2022-09-24T05:13:45.044Z,0.00
2022-09-24T05:14:45.076Z,0.00
2022-09-24T05:15:45.176Z,0.00
2022-09-24T05:16:45.145Z,0.00
2022-09-24T05:17:45.174Z,0.00
2022-09-24T05:18:45.209Z,0.00
2022-09-24T05:19:45.242Z,0.00
2022-09-24T05:20:45.276Z,0.00
2022-09-24T05:21:45.305Z,0.00
2022-09-24T05:22:45.338Z,0.00
2022-09-24T05:23:45.380Z,0.00
2022-09-24T05:24:45.407Z,0.00
2022-09-24T05:25:45.437Z,0.00
2022-09-24T05:26:45.472Z,0.00
2022-09-24T05:27:45.503Z,0.00
2022-09-24T05:28:45.538Z,0.00
2022-09-24T05:29:45.569Z,0.00
2022-09-24T05:30:45.612Z,0.00
2022-09-24T05:31:45.677Z,0.00
2022-09-24T05:32:45.668Z,0.00
2022-09-24T05:33:45.701Z,0.00
2022-09-24T05:34:45.734Z,0.00
2022-09-24T05:35:45.769Z,0.00
2022-09-24T05:36:45.801Z,0.00
2022-09-24T05:37:45.832Z,0.00
2022-09-24T05:38:45.865Z,0.00
2022-09-24T05:39:45.900Z,0.00
2022-09-24T05:40:45.975Z,0.00
2022-09-24T05:41:45.963Z,5.63
2022-09-24T05:42:45.998Z,5.63
2022-09-24T05:43:46.035Z,5.63
2022-09-24T05:44:51.311Z,5.63
2022-09-24T05:45:46.096Z,5.63
2022-09-24T05:46:46.187Z,5.63
2022-09-24T05:47:46.159Z,5.63
2022-09-24T05:48:46.195Z,5.63
2022-09-24T05:49:46.225Z,5.63
2022-09-24T05:50:46.259Z,5.63
2022-09-24T05:51:46.293Z,5.63
2022-09-24T05:52:46.327Z,5.63
2022-09-24T05:53:46.359Z,5.63
2022-09-24T05:54:46.391Z,5.63
2022-09-24T05:55:46.424Z,5.63
2022-09-24T05:56:46.457Z,11.25
2022-09-24T05:57:46.496Z,11.25
2022-09-24T05:58:46.526Z,11.25
2022-09-24T05:59:46.555Z,11.25
2022-09-24T06:00:46.589Z,11.25
2022-09-24T06:01:46.663Z,11.25
2022-09-24T06:02:46.708Z,11.25
2022-09-24T06:03:46.692Z,11.25
2022-09-24T06:04:46.720Z,11.25
2022-09-24T06:05:46.752Z,11.25
2022-09-24T06:06:46.795Z,11.25
2022-09-24T06:07:46.820Z,11.25
2022-09-24T06:08:46.854Z,11.25
2022-09-24T06:09:46.884Z,11.25
2022-09-24T06:10:46.918Z,11.25
2022-09-24T06:11:47.034Z,11.25
2022-09-24T06:12:46.985Z,11.25
2022-09-24T06:13:47.016Z,11.25
2022-09-24T06:14:47.054Z,11.25
2022-09-24T06:15:47.265Z,16.88
2022-09-24T06:16:47.118Z,16.88
2022-09-24T06:17:47.147Z,16.88
2022-09-24T06:18:47.181Z,16.88
2022-09-24T06:19:47.215Z,16.88
2022-09-24T06:20:47.248Z,16.88
2022-09-24T06:21:47.278Z,16.88
2022-09-24T06:22:47.314Z,16.88
2022-09-24T06:23:47.344Z,16.88
2022-09-24T06:24:47.382Z,16.88
2022-09-24T06:25:47.414Z,16.88
2022-09-24T06:26:47.445Z,22.50
2022-09-24T06:27:47.477Z,22.50
2022-09-24T06:28:47.517Z,22.50
2022-09-24T06:29:47.541Z,22.50
2022-09-24T06:30:47.576Z,22.50
2022-09-24T06:31:47.638Z,22.50
2022-09-24T06:32:47.642Z,22.50
2022-09-24T06:33:47.674Z,22.50
2022-09-24T06:34:47.714Z,22.50
2022-09-24T06:35:47.741Z,22.50
2022-09-24T06:36:47.776Z,22.50
2022-09-24T06:37:47.811Z,22.50
2022-09-24T06:38:47.841Z,22.50
2022-09-24T06:39:47.871Z,28.13
2022-09-24T06:40:47.977Z,28.13
2022-09-24T06:41:47.938Z,28.13
2022-09-24T06:42:47.972Z,28.13
2022-09-24T06:43:48.007Z,28.13
2022-09-24T06:44:48.037Z,28.13
2022-09-24T06:45:48.068Z,22.50
2022-09-24T06:46:48.233Z,22.50
2022-09-24T06:47:48.138Z,22.50
2022-09-24T06:48:48.171Z,22.50
2022-09-24T06:49:48.200Z,22.50
2022-09-24T06:50:48.238Z,22.50
2022-09-24T06:51:48.269Z,22.50
2022-09-24T06:52:48.303Z,22.50
2022-09-24T06:53:48.335Z,22.50
2022-09-24T06:54:48.369Z,16.88
2022-09-24T06:55:48.400Z,16.88
2022-09-24T06:56:48.438Z,16.88
2022-09-24T06:57:48.466Z,16.88
2022-09-24T06:58:48.531Z,16.88
2022-09-24T06:59:48.532Z,16.88
2022-09-24T07:00:48.577Z,16.88
2022-09-24T07:01:48.669Z,16.88
2022-09-24T07:02:48.632Z,16.88
2022-09-24T07:03:48.665Z,16.88
2022-09-24T07:04:48.698Z,16.88
2022-09-24T07:05:48.728Z,16.88
2022-09-24T07:06:48.766Z,16.88
2022-09-24T07:07:48.799Z,16.88
2022-09-24T07:08:48.832Z,16.88
2022-09-24T07:09:48.863Z,16.88
2022-09-24T07:10:48.895Z,16.88
2022-09-24T07:11:48.930Z,16.88
2022-09-24T07:12:48.975Z,16.88
2022-09-24T07:13:48.997Z,16.88
2022-09-24T07:14:49.028Z,16.88
2022-09-24T07:15:49.155Z,16.88
2022-09-24T07:16:49.095Z,16.88
2022-09-24T07:17:49.146Z,16.88
2022-09-24T07:18:49.160Z,16.88
2022-09-24T07:19:49.194Z,16.88
2022-09-24T07:20:49.228Z,16.88
2022-09-24T07:21:49.259Z,16.88
2022-09-24T07:22:49.294Z,16.88
2022-09-24T07:23:49.327Z,16.88
2022-09-24T07:24:49.364Z,16.88
2022-09-24T07:25:49.391Z,22.50
2022-09-24T07:26:49.427Z,22.50
2022-09-24T07:27:49.503Z,22.50
2022-09-24T07:28:49.515Z,22.50
2022-09-24T07:29:49.525Z,22.50
2022-09-24T07:30:49.593Z,22.50
2022-09-24T07:31:49.691Z,22.50
2022-09-24T07:32:49.625Z,22.50
2022-09-24T07:33:49.659Z,22.50
2022-09-24T07:34:49.691Z,22.50
2022-09-24T07:35:49.723Z,22.50
2022-09-24T07:36:49.756Z,22.50
2022-09-24T07:37:49.789Z,22.50
2022-09-24T07:38:49.825Z,22.50
2022-09-24T07:39:49.857Z,16.88
2022-09-24T07:40:49.976Z,16.88
2022-09-24T07:41:49.921Z,16.88
2022-09-24T07:42:49.958Z,16.88
2022-09-24T07:43:49.988Z,16.88
2022-09-24T07:44:50.023Z,16.88
2022-09-24T07:45:50.055Z,16.88
2022-09-24T07:46:50.223Z,16.88
2022-09-24T07:47:50.124Z,16.88
2022-09-24T07:48:50.154Z,16.88
2022-09-24T07:49:50.199Z,16.88
2022-09-24T07:50:50.222Z,16.88
2022-09-24T07:51:50.257Z,16.88
2022-09-24T07:52:50.290Z,16.88
2022-09-24T07:53:50.319Z,16.88
2022-09-24T07:54:50.357Z,16.88
2022-09-24T07:55:50.389Z,16.88
2022-09-24T07:56:50.425Z,16.88
2022-09-24T07:57:50.462Z,16.88
2022-09-24T07:58:50.487Z,16.88
2022-09-24T07:59:50.539Z,16.88
2022-09-24T08:00:50.554Z,16.88
2022-09-24T08:01:50.617Z,16.88
2022-09-24T08:02:50.620Z,22.50
2022-09-24T08:03:50.722Z,22.50
2022-09-24T08:04:50.689Z,22.50
2022-09-24T08:05:50.720Z,22.50
2022-09-24T08:06:50.753Z,22.50
2022-09-24T08:07:50.788Z,22.50
2022-09-24T08:08:50.851Z,22.50
2022-09-24T08:09:50.914Z,22.50
2022-09-24T08:10:50.889Z,22.50
2022-09-24T08:11:50.922Z,22.50
2022-09-24T08:12:50.957Z,22.50
2022-09-24T08:13:51.001Z,22.50
2022-09-24T08:14:51.020Z,22.50
2022-09-24T08:15:51.088Z,22.50
2022-09-24T08:16:51.086Z,22.50
2022-09-24T08:17:51.134Z,28.13
2022-09-24T08:18:51.152Z,28.13
2022-09-24T08:19:51.189Z,28.13
2022-09-24T08:20:51.219Z,28.13
2022-09-24T08:21:51.255Z,28.13
2022-09-24T08:22:51.285Z,28.13
2022-09-24T08:23:51.324Z,33.75
2022-09-24T08:24:51.358Z,33.75
2022-09-24T08:25:51.388Z,33.75
2022-09-24T08:26:51.419Z,33.75
2022-09-24T08:27:51.457Z,33.75
2022-09-24T08:28:51.487Z,33.75
2022-09-24T08:29:51.521Z,33.75
2022-09-24T08:30:51.605Z,33.75
2022-09-24T08:31:51.598Z,33.75
2022-09-24T08:32:51.622Z,33.75
2022-09-24T08:33:51.667Z,33.75
2022-09-24T08:34:52.846Z,39.38
2022-09-24T08:35:51.724Z,39.38
2022-09-24T08:36:51.758Z,39.38
2022-09-24T08:37:51.790Z,39.38
2022-09-24T08:38:51.855Z,45.00
2022-09-24T08:39:51.858Z,45.00
2022-09-24T08:40:51.984Z,45.00
2022-09-24T08:41:51.924Z,50.63
2022-09-24T08:42:51.956Z,50.63
2022-09-24T08:43:52.005Z,56.25
2022-09-24T08:44:52.025Z,56.25
2022-09-24T08:45:52.059Z,56.25
2022-09-24T08:46:52.200Z,56.25
2022-09-24T08:47:52.125Z,61.88
2022-09-24T08:48:52.158Z,61.88
2022-09-24T08:49:52.192Z,61.88
2022-09-24T08:50:52.226Z,56.25
2022-09-24T08:51:52.271Z,56.25
2022-09-24T08:52:52.294Z,56.25
2022-09-24T08:53:52.327Z,56.25
2022-09-24T08:54:52.361Z,56.25
2022-09-24T08:55:52.396Z,56.25
2022-09-24T08:56:52.430Z,61.88
2022-09-24T08:57:52.464Z,61.88
2022-09-24T08:58:52.497Z,61.88
2022-09-24T08:59:52.533Z,61.88
2022-09-24T09:00:52.566Z,67.50
2022-09-24T09:01:52.756Z,67.50
2022-09-24T09:02:52.714Z,73.13
2022-09-24T09:03:52.668Z,73.13
2022-09-24T09:04:52.711Z,73.13
2022-09-24T09:05:52.735Z,73.13
2022-09-24T09:06:52.769Z,73.13
2022-09-24T09:07:52.807Z,73.13
2022-09-24T09:09:06.783Z,73.13
2022-09-24T09:09:52.871Z,73.13
2022-09-24T09:10:52.907Z,73.13
2022-09-24T09:11:52.938Z,73.13
2022-09-24T09:12:52.972Z,78.75
2022-09-24T09:13:53.020Z,78.75
2022-09-24T09:14:53.039Z,84.38
2022-09-24T09:15:53.121Z,84.38
2022-09-24T09:16:53.110Z,84.38
2022-09-24T09:17:53.152Z,90.00
2022-09-24T09:18:53.175Z,90.00
2022-09-24T09:19:53.953Z,90.00
2022-09-24T09:20:53.249Z,90.00
2022-09-24T09:21:53.285Z,84.38
2022-09-24T09:22:53.327Z,84.38
2022-09-24T09:23:53.350Z,84.38
2022-09-24T09:24:53.383Z,84.38
2022-09-24T09:25:53.419Z,84.38
2022-09-24T09:26:53.452Z,78.75
2022-09-24T09:27:53.487Z,78.75
2022-09-24T09:28:53.521Z,78.75
2022-09-24T09:29:53.555Z,78.75
2022-09-24T09:30:53.682Z,78.75
2022-09-24T09:31:56.335Z,84.38
2022-09-24T09:32:53.658Z,84.38
2022-09-24T09:33:53.693Z,90.00
2022-09-24T09:34:53.791Z,84.38
2022-09-24T09:35:53.763Z,84.38
2022-09-24T09:36:53.797Z,84.38
2022-09-24T09:37:53.831Z,73.13
2022-09-24T09:38:53.865Z,73.13
2022-09-24T09:39:53.903Z,73.13
2022-09-24T09:40:54.057Z,67.50
2022-09-24T09:41:53.971Z,67.50
2022-09-24T09:42:54.003Z,61.88
2022-09-24T09:43:54.040Z,61.88
2022-09-24T09:44:54.073Z,67.50
2022-09-24T09:45:54.107Z,73.13
2022-09-24T09:46:54.185Z,73.13
2022-09-24T09:47:54.177Z,73.13
2022-09-24T09:48:54.221Z,73.13
2022-09-24T09:49:54.247Z,78.75
2022-09-24T09:50:54.287Z,78.75
2022-09-24T09:51:54.317Z,73.13
2022-09-24T09:52:54.350Z,73.13
2022-09-24T09:53:54.445Z,73.13
2022-09-24T09:54:54.476Z,67.50
2022-09-24T09:55:54.562Z,67.50
2022-09-24T09:56:54.491Z,61.88
2022-09-24T09:57:54.586Z,56.25
2022-09-24T09:58:54.624Z,56.25
2022-09-24T09:59:54.652Z,50.63
2022-09-24T10:00:54.661Z,50.63
2022-09-24T10:01:54.770Z,45.00
2022-09-24T10:02:54.833Z,45.00
2022-09-24T10:03:54.746Z,45.00
2022-09-24T10:04:54.781Z,45.00
2022-09-24T10:05:54.866Z,45.00
2022-09-24T10:06:54.868Z,45.00
2022-09-24T10:07:54.911Z,45.00
2022-09-24T10:08:54.941Z,45.00
2022-09-24T10:09:54.968Z,50.63
2022-09-24T10:10:55.033Z,50.63
2022-09-24T10:11:55.044Z,56.25
2022-09-24T10:12:55.111Z,56.25
2022-09-24T10:13:55.117Z,56.25
2022-09-24T10:14:55.183Z,56.25
2022-09-24T10:15:55.245Z,61.88
2022-09-24T10:16:55.289Z,61.88
2022-09-24T10:17:55.299Z,56.25
2022-09-24T10:18:55.260Z,56.25
2022-09-24T10:19:55.307Z,56.25
2022-09-24T10:20:55.354Z,50.63
2022-09-24T10:21:55.365Z,50.63
2022-09-24T10:22:55.398Z,50.63
2022-09-24T10:23:55.437Z,50.63
2022-09-24T10:24:55.484Z,50.63
2022-09-24T10:25:55.556Z,50.63
2022-09-24T10:26:55.564Z,50.63
2022-09-24T10:27:55.720Z,50.63
2022-09-24T10:28:55.610Z,50.63
2022-09-24T10:29:55.647Z,50.63
2022-09-24T10:30:55.683Z,50.63
2022-09-24T10:31:55.717Z,50.63
2022-09-24T10:32:55.751Z,50.63
2022-09-24T10:33:55.798Z,50.63
2022-09-24T10:34:55.821Z,50.63
2022-09-24T10:35:55.858Z,50.63
2022-09-24T10:36:55.900Z,45.00
2022-09-24T10:37:55.927Z,45.00
2022-09-24T10:38:55.961Z,45.00
2022-09-24T10:39:55.998Z,45.00
2022-09-24T10:40:56.088Z,45.00
2022-09-24T10:41:56.067Z,39.38
2022-09-24T10:42:56.101Z,39.38
2022-09-24T10:43:56.137Z,39.38
2022-09-24T10:44:56.173Z,39.38
2022-09-24T10:45:56.208Z,39.38
2022-09-24T10:46:56.349Z,39.38
2022-09-24T10:47:56.278Z,39.38
2022-09-24T10:48:56.317Z,39.38
2022-09-24T10:49:56.351Z,33.75
2022-09-24T10:50:56.383Z,33.75
2022-09-24T10:51:56.421Z,33.75
2022-09-24T10:52:56.456Z,39.38
2022-09-24T10:53:56.492Z,33.75
2022-09-24T10:54:56.523Z,39.38
2022-09-24T10:55:56.568Z,39.38
2022-09-24T10:56:56.594Z,39.38
2022-09-24T10:57:56.631Z,39.38
2022-09-24T10:58:56.665Z,39.38
2022-09-24T10:59:56.722Z,39.38
2022-09-24T11:00:56.736Z,39.38
2022-09-24T11:01:56.797Z,39.38
2022-09-24T11:02:56.877Z,45.00
2022-09-24T11:03:56.845Z,45.00
2022-09-24T11:04:56.877Z,45.00
2022-09-24T11:05:56.919Z,50.63
2022-09-24T11:06:56.947Z,50.63
2022-09-24T11:07:56.982Z,56.25
2022-09-24T11:08:57.020Z,56.25
2022-09-24T11:09:57.053Z,56.25
2022-09-24T11:10:57.091Z,61.88
2022-09-24T11:11:57.132Z,61.88
2022-09-24T11:12:57.164Z,67.50
2022-09-24T11:13:57.194Z,67.50
2022-09-24T11:14:57.230Z,67.50
2022-09-24T11:15:57.382Z,73.13
2022-09-24T11:16:57.300Z,73.13
2022-09-24T11:17:57.336Z,73.13
2022-09-24T11:18:57.373Z,73.13
2022-09-24T11:19:57.410Z,73.13
2022-09-24T11:20:57.446Z,73.13
2022-09-24T11:21:57.481Z,73.13
2022-09-24T11:22:57.513Z,78.75
2022-09-24T11:23:57.548Z,78.75
2022-09-24T11:24:57.586Z,78.75
2022-09-24T11:25:57.621Z,73.13
2022-09-24T11:26:57.652Z,73.13
2022-09-24T11:27:57.692Z,73.13
2022-09-24T11:28:57.724Z,73.13
2022-09-24T11:29:57.762Z,73.13
2022-09-24T11:30:57.875Z,78.75
2022-09-24T11:31:57.834Z,78.75
2022-09-24T11:32:57.873Z,78.75
2022-09-24T11:33:57.902Z,78.75
2022-09-24T11:34:57.937Z,78.75
2022-09-24T11:35:57.976Z,78.75
2022-09-24T11:36:58.015Z,78.75
2022-09-24T11:37:58.043Z,73.13
2022-09-24T11:38:58.080Z,73.13
2022-09-24T11:39:58.114Z,73.13
2022-09-24T11:40:58.190Z,67.50
2022-09-24T11:42:05.402Z,67.50
2022-09-24T11:44:02.375Z,67.50
2022-09-24T11:45:02.282Z,67.50
2022-09-24T11:47:06.351Z,61.88
2022-09-24T11:48:06.374Z,61.88
2022-09-24T11:50:10.480Z,61.88
2022-09-24T11:51:10.473Z,61.88
2022-09-24T11:53:03.645Z,61.88
2022-09-24T11:54:03.679Z,61.88
2022-09-24T11:55:56.661Z,56.25
2022-09-24T11:56:56.693Z,56.25
2022-09-24T11:58:49.910Z,56.25
2022-09-24T11:59:49.903Z,50.63
2022-09-24T12:01:54.054Z,50.63
2022-09-24T12:02:54.210Z,45.00
2022-09-24T12:04:47.182Z,45.00
2022-09-24T12:05:47.209Z,45.00
2022-09-24T12:07:51.327Z,39.38
2022-09-24T12:08:51.321Z,39.38
2022-09-24T12:10:55.394Z,39.38
2022-09-24T12:11:55.419Z,39.38
2022-09-24T12:13:59.476Z,39.38
2022-09-24T12:14:59.505Z,39.38
2022-09-24T12:17:03.593Z,39.38
2022-09-24T12:18:03.630Z,33.75
2022-09-24T12:20:07.704Z,33.75
2022-09-24T12:21:07.725Z,33.75
2022-09-24T12:23:11.947Z,39.38
2022-09-24T12:24:12.024Z,39.38
2022-09-24T12:26:04.814Z,39.38
2022-09-24T12:27:04.839Z,39.38
2022-09-24T12:28:04.876Z,39.38
2022-09-24T12:29:04.909Z,39.38
2022-09-24T12:30:04.947Z,39.38
2022-09-24T12:31:08.688Z,39.38
2022-09-24T12:32:05.018Z,45.00
2022-09-24T12:33:05.054Z,45.00
2022-09-24T12:34:05.193Z,45.00
2022-09-24T12:35:05.127Z,50.63
2022-09-24T12:36:05.165Z,50.63
2022-09-24T12:37:05.203Z,56.25
2022-09-24T12:38:05.231Z,56.25
2022-09-24T12:39:05.266Z,61.88
2022-09-24T12:40:05.310Z,67.50
2022-09-24T12:41:05.338Z,67.50
2022-09-24T12:42:05.377Z,73.13
2022-09-24T12:43:05.409Z,73.13
2022-09-24T12:44:05.539Z,84.38
2022-09-24T12:45:05.478Z,95.63
2022-09-24T12:46:05.559Z,101.25
2022-09-24T12:47:05.569Z,106.88
2022-09-24T12:48:05.598Z,112.50
2022-09-24T12:49:05.624Z,118.13
2022-09-24T12:50:05.743Z,112.50
2022-09-24T12:51:05.696Z,118.13
2022-09-24T12:52:05.732Z,123.75
2022-09-24T12:53:05.767Z,123.75
2022-09-24T12:54:05.913Z,123.75
2022-09-24T12:55:05.839Z,123.75
2022-09-24T12:56:05.878Z,118.13
2022-09-24T12:57:05.910Z,112.50
2022-09-24T12:58:05.949Z,101.25
2022-09-24T12:59:05.982Z,95.63
2022-09-24T13:00:06.037Z,90.00
2022-09-24T13:01:06.052Z,90.00
2022-09-24T13:02:06.255Z,84.38
2022-09-24T13:03:06.281Z,84.38
2022-09-24T13:04:06.250Z,78.75
2022-09-24T13:05:06.198Z,73.13
2022-09-24T13:06:06.234Z,73.13
2022-09-24T13:07:06.271Z,73.13
2022-09-24T13:08:06.308Z,78.75
2022-09-24T13:09:06.340Z,84.38
2022-09-24T13:10:06.375Z,84.38
2022-09-24T13:11:06.412Z,90.00
2022-09-24T13:12:06.447Z,90.00
2022-09-24T13:13:06.484Z,90.00
2022-09-24T13:14:06.519Z,90.00
2022-09-24T13:15:06.556Z,84.38
2022-09-24T13:16:06.649Z,90.00
2022-09-24T13:17:06.635Z,90.00
2022-09-24T13:18:06.665Z,95.63
2022-09-24T13:19:06.702Z,101.25